sensor_id;sensor_type;location;lat;lon;timestamp;pressure;altitude;pressure_sealevel;temperature;humidity
16355;BME280;8287;51.644;8.494;2024-02-26T00:02:24;98838.28;;;5.97;94.52
16355;BME280;8287;51.644;8.494;2024-02-26T00:04:51;98835.19;;;5.95;94.74
16355;BME280;8287;51.644;8.494;2024-02-26T00:07:17;98833.50;;;5.90;94.90
16355;BME280;8287;51.644;8.494;2024-02-26T00:09:44;98835.34;;;5.90;94.97
16355;BME280;8287;51.644;8.494;2024-02-26T00:12:11;98836.13;;;5.90;94.68
16355;BME280;8287;51.644;8.494;2024-02-26T00:14:37;98836.28;;;5.94;94.96
16355;BME280;8287;51.644;8.494;2024-02-26T00:17:04;98834.09;;;5.96;94.65
16355;BME280;8287;51.644;8.494;2024-02-26T00:19:32;98825.75;;;5.94;94.89
16355;BME280;8287;51.644;8.494;2024-02-26T00:21:58;98829.16;;;6.03;94.33
16355;BME280;8287;51.644;8.494;2024-02-26T00:24:25;98830.69;;;6.04;93.66
16355;BME280;8287;51.644;8.494;2024-02-26T00:26:51;98823.59;;;5.96;93.72
16355;BME280;8287;51.644;8.494;2024-02-26T00:29:20;98824.97;;;6.02;94.45
16355;BME280;8287;51.644;8.494;2024-02-26T00:31:46;98833.94;;;6.09;93.59
16355;BME280;8287;51.644;8.494;2024-02-26T00:34:13;98831.31;;;6.18;93.49
16355;BME280;8287;51.644;8.494;2024-02-26T00:36:41;98836.72;;;6.21;92.81
16355;BME280;8287;51.644;8.494;2024-02-26T00:39:07;98829.13;;;6.20;93.06
16355;BME280;8287;51.644;8.494;2024-02-26T00:41:38;98825.72;;;6.28;93.09
16355;BME280;8287;51.644;8.494;2024-02-26T00:44:04;98818.78;;;6.23;92.92
16355;BME280;8287;51.644;8.494;2024-02-26T00:46:31;98821.09;;;6.25;92.92
16355;BME280;8287;51.644;8.494;2024-02-26T00:48:57;98822.50;;;6.22;92.78
16355;BME280;8287;51.644;8.494;2024-02-26T00:51:24;98814.91;;;6.21;92.54
16355;BME280;8287;51.644;8.494;2024-02-26T00:53:52;98801.75;;;6.29;93.02
16355;BME280;8287;51.644;8.494;2024-02-26T00:56:18;98794.16;;;6.19;92.08
16355;BME280;8287;51.644;8.494;2024-02-26T00:58:45;98801.75;;;6.21;92.69
16355;BME280;8287;51.644;8.494;2024-02-26T01:01:11;98804.38;;;6.21;92.41
16355;BME280;8287;51.644;8.494;2024-02-26T01:03:38;98797.44;;;6.08;92.85
16355;BME280;8287;51.644;8.494;2024-02-26T01:06:05;98798.81;;;6.14;93.23
16355;BME280;8287;51.644;8.494;2024-02-26T01:08:31;98796.03;;;6.19;92.85
16355;BME280;8287;51.644;8.494;2024-02-26T01:10:59;98797.09;;;6.26;92.38
16355;BME280;8287;51.644;8.494;2024-02-26T01:13:26;98794.91;;;6.37;92.13
16355;BME280;8287;51.644;8.494;2024-02-26T01:15:53;98796.31;;;6.43;91.68
16355;BME280;8287;51.644;8.494;2024-02-26T01:18:19;98785.78;;;6.43;91.28
16355;BME280;8287;51.644;8.494;2024-02-26T01:20:46;98783.47;;;6.41;91.92
16355;BME280;8287;51.644;8.494;2024-02-26T01:23:12;98780.81;;;6.41;91.59
16355;BME280;8287;51.644;8.494;2024-02-26T01:25:39;98785.78;;;6.43;92.15
16355;BME280;8287;51.644;8.494;2024-02-26T01:28:07;98792.88;;;6.42;92.14
16355;BME280;8287;51.644;8.494;2024-02-26T01:30:33;98788.72;;;6.41;92.36
16355;BME280;8287;51.644;8.494;2024-02-26T01:33:00;98785.03;;;6.34;92.04
16355;BME280;8287;51.644;8.494;2024-02-26T01:35:27;98778.34;;;6.36;92.00
16355;BME280;8287;51.644;8.494;2024-02-26T01:37:53;98776.22;;;6.30;91.97
16355;BME280;8287;51.644;8.494;2024-02-26T01:40:20;98782.91;;;6.19;93.12
16355;BME280;8287;51.644;8.494;2024-02-26T01:42:47;98775.59;;;6.16;92.79
16355;BME280;8287;51.644;8.494;2024-02-26T01:45:16;98769.28;;;6.08;93.22
16355;BME280;8287;51.644;8.494;2024-02-26T01:47:48;98775.47;;;6.21;93.10
16355;BME280;8287;51.644;8.494;2024-02-26T01:50:16;98781.19;;;6.14;93.45
16355;BME280;8287;51.644;8.494;2024-02-26T01:52:43;98777.47;;;6.07;93.16
16355;BME280;8287;51.644;8.494;2024-02-26T01:55:10;98782.75;;;6.07;93.49
16355;BME280;8287;51.644;8.494;2024-02-26T01:57:36;98784.78;;;6.10;93.46
16355;BME280;8287;51.644;8.494;2024-02-26T02:00:04;98787.53;;;6.05;93.73
16355;BME280;8287;51.644;8.494;2024-02-26T02:02:34;98778.56;;;6.06;93.85
16355;BME280;8287;51.644;8.494;2024-02-26T02:05:01;98783.69;;;6.11;93.46
16355;BME280;8287;51.644;8.494;2024-02-26T02:07:29;98789.25;;;6.01;93.76
16355;BME280;8287;51.644;8.494;2024-02-26T02:09:56;98781.19;;;6.06;93.39
16355;BME280;8287;51.644;8.494;2024-02-26T02:12:23;98784.28;;;6.08;93.37
16355;BME280;8287;51.644;8.494;2024-02-26T02:14:49;98783.50;;;6.16;93.52
16355;BME280;8287;51.644;8.494;2024-02-26T02:17:16;98781.97;;;6.15;93.18
16355;BME280;8287;51.644;8.494;2024-02-26T02:19:44;98782.75;;;6.15;93.35
16355;BME280;8287;51.644;8.494;2024-02-26T02:22:12;98786.91;;;6.16;93.06
16355;BME280;8287;51.644;8.494;2024-02-26T02:24:38;98784.59;;;6.15;93.24
16355;BME280;8287;51.644;8.494;2024-02-26T02:27:05;98791.53;;;6.19;93.19
16355;BME280;8287;51.644;8.494;2024-02-26T02:29:32;98797.59;;;6.20;93.40
16355;BME280;8287;51.644;8.494;2024-02-26T02:31:59;98801.75;;;6.29;92.70
16355;BME280;8287;51.644;8.494;2024-02-26T02:34:27;98792.44;;;6.32;92.89
16355;BME280;8287;51.644;8.494;2024-02-26T02:36:54;98791.50;;;6.36;92.23
16355;BME280;8287;51.644;8.494;2024-02-26T02:39:22;98791.84;;;6.35;92.55
16355;BME280;8287;51.644;8.494;2024-02-26T02:41:49;98794.91;;;6.37;92.77
16355;BME280;8287;51.644;8.494;2024-02-26T02:44:15;98798.00;;;6.38;92.01
16355;BME280;8287;51.644;8.494;2024-02-26T02:46:43;98786.38;;;6.39;92.04
16355;BME280;8287;51.644;8.494;2024-02-26T02:49:09;98785.63;;;6.39;91.43
16355;BME280;8287;51.644;8.494;2024-02-26T02:51:36;98779.38;;;6.52;91.13
16355;BME280;8287;51.644;8.494;2024-02-26T02:54:03;98783.44;;;6.49;90.71
16355;BME280;8287;51.644;8.494;2024-02-26T02:56:31;98778.31;;;6.53;90.31
16355;BME280;8287;51.644;8.494;2024-02-26T02:58:57;98778.00;;;6.54;90.63
16355;BME280;8287;51.644;8.494;2024-02-26T03:01:24;98773.66;;;6.58;90.24
16355;BME280;8287;51.644;8.494;2024-02-26T03:03:50;98781.06;;;6.56;90.24
16355;BME280;8287;51.644;8.494;2024-02-26T03:06:17;98783.84;;;6.60;90.86
16355;BME280;8287;51.644;8.494;2024-02-26T03:08:43;98793.13;;;6.57;90.34
16355;BME280;8287;51.644;8.494;2024-02-26T03:11:13;98786.34;;;6.56;90.93
16355;BME280;8287;51.644;8.494;2024-02-26T03:13:41;98783.09;;;6.51;90.95
16355;BME280;8287;51.644;8.494;2024-02-26T03:16:08;98793.47;;;6.56;90.86
16355;BME280;8287;51.644;8.494;2024-02-26T03:18:35;98801.81;;;6.66;91.17
16355;BME280;8287;51.644;8.494;2024-02-26T03:21:01;98797.91;;;6.72;90.68
16355;BME280;8287;51.644;8.494;2024-02-26T03:23:28;98806.38;;;6.78;89.97
16355;BME280;8287;51.644;8.494;2024-02-26T03:25:56;98799.13;;;6.75;90.76
16355;BME280;8287;51.644;8.494;2024-02-26T03:28:22;98796.28;;;6.88;90.29
16355;BME280;8287;51.644;8.494;2024-02-26T03:30:50;98802.94;;;6.94;89.23
16355;BME280;8287;51.644;8.494;2024-02-26T03:33:16;98805.25;;;6.96;89.58
16355;BME280;8287;51.644;8.494;2024-02-26T03:35:43;98801.19;;;6.98;89.57
16355;BME280;8287;51.644;8.494;2024-02-26T03:38:09;98807.88;;;6.96;89.26
16355;BME280;8287;51.644;8.494;2024-02-26T03:40:36;98798.56;;;6.98;89.26
16355;BME280;8287;51.644;8.494;2024-02-26T03:43:03;98804.47;;;6.95;88.96
16355;BME280;8287;51.644;8.494;2024-02-26T03:45:31;98801.66;;;7.00;89.23
16355;BME280;8287;51.644;8.494;2024-02-26T03:47:59;98808.91;;;7.03;88.42
16355;BME280;8287;51.644;8.494;2024-02-26T03:50:26;98819.41;;;7.12;88.26
16355;BME280;8287;51.644;8.494;2024-02-26T03:52:52;98828.16;;;7.24;87.70
16355;BME280;8287;51.644;8.494;2024-02-26T03:55:19;98830.25;;;7.39;88.04
16355;BME280;8287;51.644;8.494;2024-02-26T03:57:50;98832.88;;;7.39;87.05
16355;BME280;8287;51.644;8.494;2024-02-26T04:00:17;98831.88;;;7.52;87.38
16355;BME280;8287;51.644;8.494;2024-02-26T04:02:43;98822.31;;;7.68;86.57
16355;BME280;8287;51.644;8.494;2024-02-26T04:05:12;98846.09;;;7.80;86.35
16355;BME280;8287;51.644;8.494;2024-02-26T04:07:39;98846.09;;;7.80;85.83
16355;BME280;8287;51.644;8.494;2024-02-26T04:10:09;98850.09;;;7.86;85.61
16355;BME280;8287;51.644;8.494;2024-02-26T04:12:38;98846.38;;;7.87;85.57
16355;BME280;8287;51.644;8.494;2024-02-26T04:15:05;98851.66;;;7.87;85.47
16355;BME280;8287;51.644;8.494;2024-02-26T04:17:32;98844.38;;;7.84;85.52
16355;BME280;8287;51.644;8.494;2024-02-26T04:19:59;98849.44;;;7.89;85.17
16355;BME280;8287;51.644;8.494;2024-02-26T04:22:26;98855.06;;;7.88;84.90
16355;BME280;8287;51.644;8.494;2024-02-26T04:24:53;98859.44;;;7.84;85.12
16355;BME280;8287;51.644;8.494;2024-02-26T04:27:20;98854.47;;;7.82;86.39
16355;BME280;8287;51.644;8.494;2024-02-26T04:29:46;98852.31;;;7.84;86.04
16355;BME280;8287;51.644;8.494;2024-02-26T04:32:13;98849.53;;;7.81;86.68
16355;BME280;8287;51.644;8.494;2024-02-26T04:34:39;98849.00;;;7.87;86.11
16355;BME280;8287;51.644;8.494;2024-02-26T04:37:07;98861.03;;;7.76;86.07
16355;BME280;8287;51.644;8.494;2024-02-26T04:39:35;98857.34;;;7.69;86.66
16355;BME280;8287;51.644;8.494;2024-02-26T04:42:01;98844.63;;;7.71;86.51
16355;BME280;8287;51.644;8.494;2024-02-26T04:44:29;98853.56;;;7.78;86.73
16355;BME280;8287;51.644;8.494;2024-02-26T04:46:55;98851.63;;;7.67;87.19
16355;BME280;8287;51.644;8.494;2024-02-26T04:49:22;98847.47;;;7.66;87.56
16355;BME280;8287;51.644;8.494;2024-02-26T04:51:48;98847.53;;;7.78;87.11
16355;BME280;8287;51.644;8.494;2024-02-26T04:54:15;98850.94;;;7.78;86.75
16355;BME280;8287;51.644;8.494;2024-02-26T04:56:43;98851.69;;;7.58;87.58
16355;BME280;8287;51.644;8.494;2024-02-26T04:59:10;98854.69;;;7.48;87.72
16355;BME280;8287;51.644;8.494;2024-02-26T05:01:37;98845.91;;;7.65;88.50
16355;BME280;8287;51.644;8.494;2024-02-26T05:04:04;98839.16;;;7.76;87.31
16355;BME280;8287;51.644;8.494;2024-02-26T05:06:31;98846.22;;;7.63;87.49
16355;BME280;8287;51.644;8.494;2024-02-26T05:08:57;98854.59;;;7.65;87.12
16355;BME280;8287;51.644;8.494;2024-02-26T05:11:24;98860.88;;;7.52;87.54
16355;BME280;8287;51.644;8.494;2024-02-26T05:13:52;98858.56;;;7.51;88.36
16355;BME280;8287;51.644;8.494;2024-02-26T05:16:19;98855.78;;;7.47;87.79
16355;BME280;8287;51.644;8.494;2024-02-26T05:18:47;98847.75;;;7.44;87.53
16355;BME280;8287;51.644;8.494;2024-02-26T05:21:13;98855.78;;;7.47;87.70
16355;BME280;8287;51.644;8.494;2024-02-26T05:23:40;98854.09;;;7.43;87.43
16355;BME280;8287;51.644;8.494;2024-02-26T05:26:08;98850.00;;;7.54;87.68
16355;BME280;8287;51.644;8.494;2024-02-26T05:28:34;98844.56;;;7.59;87.52
16355;BME280;8287;51.644;8.494;2024-02-26T05:31:04;98851.22;;;7.56;87.65
16355;BME280;8287;51.644;8.494;2024-02-26T05:33:31;98851.03;;;7.41;87.48
16355;BME280;8287;51.644;8.494;2024-02-26T05:35:57;98846.06;;;7.39;87.77
16355;BME280;8287;51.644;8.494;2024-02-26T05:38:29;98843.88;;;7.41;88.54
16355;BME280;8287;51.644;8.494;2024-02-26T05:40:56;98848.69;;;7.39;88.92
16355;BME280;8287;51.644;8.494;2024-02-26T05:43:24;98861.38;;;7.46;88.54
16355;BME280;8287;51.644;8.494;2024-02-26T05:45:50;98857.69;;;7.38;88.65
16355;BME280;8287;51.644;8.494;2024-02-26T05:48:19;98861.88;;;7.39;88.84
16355;BME280;8287;51.644;8.494;2024-02-26T05:50:45;98860.59;;;7.45;88.69
16355;BME280;8287;51.644;8.494;2024-02-26T05:53:12;98860.22;;;7.55;88.14
16355;BME280;8287;51.644;8.494;2024-02-26T05:55:38;98863.53;;;7.73;87.93
16355;BME280;8287;51.644;8.494;2024-02-26T05:58:05;98858.06;;;7.78;87.19
16355;BME280;8287;51.644;8.494;2024-02-26T06:00:32;98869.25;;;7.75;86.65
16355;BME280;8287;51.644;8.494;2024-02-26T06:02:58;98873.03;;;7.65;86.98
16355;BME280;8287;51.644;8.494;2024-02-26T06:05:26;98871.56;;;7.56;87.22
16355;BME280;8287;51.644;8.494;2024-02-26T06:07:53;98870.78;;;7.55;87.32
16355;BME280;8287;51.644;8.494;2024-02-26T06:10:20;98871.19;;;7.66;87.09
16355;BME280;8287;51.644;8.494;2024-02-26T06:12:47;98882.13;;;7.76;86.80
16355;BME280;8287;51.644;8.494;2024-02-26T06:15:13;98889.31;;;7.67;87.04
16355;BME280;8287;51.644;8.494;2024-02-26T06:17:40;98884.94;;;7.71;86.70
16355;BME280;8287;51.644;8.494;2024-02-26T06:20:08;98891.13;;;7.75;86.45
16355;BME280;8287;51.644;8.494;2024-02-26T06:22:39;98900.06;;;7.54;86.96
16355;BME280;8287;51.644;8.494;2024-02-26T06:25:06;98901.59;;;7.63;87.71
16355;BME280;8287;51.644;8.494;2024-02-26T06:27:33;98897.84;;;7.64;87.54
16355;BME280;8287;51.644;8.494;2024-02-26T06:30:00;98894.53;;;7.76;87.23
16355;BME280;8287;51.644;8.494;2024-02-26T06:32:27;98898.09;;;7.80;86.81
16355;BME280;8287;51.644;8.494;2024-02-26T06:34:54;98908.25;;;7.90;85.92
16355;BME280;8287;51.644;8.494;2024-02-26T06:37:21;98914.28;;;7.90;86.50
16355;BME280;8287;51.644;8.494;2024-02-26T06:39:49;98921.38;;;7.98;85.47
16355;BME280;8287;51.644;8.494;2024-02-26T06:42:17;98920.59;;;7.98;85.29
16355;BME280;8287;51.644;8.494;2024-02-26T06:44:43;98917.97;;;7.98;85.78
16355;BME280;8287;51.644;8.494;2024-02-26T06:47:10;98929.28;;;7.98;85.22
16355;BME280;8287;51.644;8.494;2024-02-26T06:49:37;98933.31;;;7.96;85.24
16355;BME280;8287;51.644;8.494;2024-02-26T06:52:03;98938.28;;;7.97;85.98
16355;BME280;8287;51.644;8.494;2024-02-26T06:54:31;98928.13;;;7.87;85.66
16355;BME280;8287;51.644;8.494;2024-02-26T06:56:59;98923.88;;;7.95;86.00
16355;BME280;8287;51.644;8.494;2024-02-26T06:59:25;98932.56;;;7.95;85.17
16355;BME280;8287;51.644;8.494;2024-02-26T07:01:52;98939.06;;;7.98;84.60
16355;BME280;8287;51.644;8.494;2024-02-26T07:04:19;98941.59;;;7.86;84.71
16355;BME280;8287;51.644;8.494;2024-02-26T07:06:46;98945.66;;;7.83;86.16
16355;BME280;8287;51.644;8.494;2024-02-26T07:09:13;98946.31;;;7.80;86.46
16355;BME280;8287;51.644;8.494;2024-02-26T07:11:40;98951.28;;;7.73;86.74
16355;BME280;8287;51.644;8.494;2024-02-26T07:14:10;98960.72;;;7.83;86.51
16355;BME280;8287;51.644;8.494;2024-02-26T07:16:37;98958.84;;;7.83;86.38
16355;BME280;8287;51.644;8.494;2024-02-26T07:19:03;98962.69;;;7.86;86.72
16355;BME280;8287;51.644;8.494;2024-02-26T07:21:30;98956.09;;;7.80;86.16
16355;BME280;8287;51.644;8.494;2024-02-26T07:23:56;98963.03;;;7.84;85.51
16355;BME280;8287;51.644;8.494;2024-02-26T07:26:23;98957.19;;;7.99;86.05
16355;BME280;8287;51.644;8.494;2024-02-26T07:28:51;98955.38;;;7.91;85.53
16355;BME280;8287;51.644;8.494;2024-02-26T07:31:19;98954.56;;;7.99;85.68
16355;BME280;8287;51.644;8.494;2024-02-26T07:33:46;98953.16;;;8.02;85.70
16355;BME280;8287;51.644;8.494;2024-02-26T07:36:12;98956.72;;;8.06;86.05
16355;BME280;8287;51.644;8.494;2024-02-26T07:38:39;98956.38;;;8.07;85.54
16355;BME280;8287;51.644;8.494;2024-02-26T07:41:05;98963.19;;;8.08;85.33
16355;BME280;8287;51.644;8.494;2024-02-26T07:43:32;98957.28;;;8.11;85.69
16355;BME280;8287;51.644;8.494;2024-02-26T07:45:58;98958.50;;;8.14;85.20
16355;BME280;8287;51.644;8.494;2024-02-26T07:48:26;98965.78;;;8.17;85.00
16355;BME280;8287;51.644;8.494;2024-02-26T07:50:53;98959.13;;;8.19;85.35
16355;BME280;8287;51.644;8.494;2024-02-26T07:53:19;98970.84;;;8.30;84.93
16355;BME280;8287;51.644;8.494;2024-02-26T07:55:46;98964.47;;;8.31;85.07
16355;BME280;8287;51.644;8.494;2024-02-26T07:58:12;98977.66;;;8.31;85.55
16355;BME280;8287;51.644;8.494;2024-02-26T08:00:39;98977.13;;;8.38;85.11
16355;BME280;8287;51.644;8.494;2024-02-26T08:03:05;98984.88;;;8.43;85.58
16355;BME280;8287;51.644;8.494;2024-02-26T08:05:34;98993.94;;;8.33;85.36
16355;BME280;8287;51.644;8.494;2024-02-26T08:08:01;98990.09;;;8.51;85.64
16355;BME280;8287;51.644;8.494;2024-02-26T08:10:28;98998.50;;;8.65;85.09
16355;BME280;8287;51.644;8.494;2024-02-26T08:12:54;98998.84;;;8.64;84.37
16355;BME280;8287;51.644;8.494;2024-02-26T08:15:22;99006.78;;;8.64;84.79
16355;BME280;8287;51.644;8.494;2024-02-26T08:17:48;99002.25;;;8.64;84.15
16355;BME280;8287;51.644;8.494;2024-02-26T08:20:15;99002.38;;;8.68;84.80
16355;BME280;8287;51.644;8.494;2024-02-26T08:22:43;99001.91;;;8.86;84.91
16355;BME280;8287;51.644;8.494;2024-02-26T08:25:10;99002.50;;;9.04;84.12
16355;BME280;8287;51.644;8.494;2024-02-26T08:27:36;99009.13;;;9.10;83.33
16355;BME280;8287;51.644;8.494;2024-02-26T08:30:03;98998.81;;;9.17;83.28
16355;BME280;8287;51.644;8.494;2024-02-26T08:32:30;99008.72;;;9.20;82.82
16355;BME280;8287;51.644;8.494;2024-02-26T08:34:57;99006.63;;;9.25;82.22
16355;BME280;8287;51.644;8.494;2024-02-26T08:37:23;99005.03;;;9.45;82.14
16355;BME280;8287;51.644;8.494;2024-02-26T08:39:51;99007.25;;;9.43;81.52
16355;BME280;8287;51.644;8.494;2024-02-26T08:42:17;99001.09;;;9.51;80.77
16355;BME280;8287;51.644;8.494;2024-02-26T08:44:44;99008.69;;;9.52;80.57
16355;BME280;8287;51.644;8.494;2024-02-26T08:47:10;99005.38;;;9.55;80.26
16355;BME280;8287;51.644;8.494;2024-02-26T08:49:42;99004.72;;;9.58;80.89
16355;BME280;8287;51.644;8.494;2024-02-26T08:52:08;99007.41;;;9.70;80.70
16355;BME280;8287;51.644;8.494;2024-02-26T08:54:35;99009.56;;;9.44;79.34
16355;BME280;8287;51.644;8.494;2024-02-26T08:57:03;99013.31;;;9.55;80.05
16355;BME280;8287;51.644;8.494;2024-02-26T08:59:30;99011.78;;;9.66;81.05
16355;BME280;8287;51.644;8.494;2024-02-26T09:01:57;99004.31;;;9.80;80.30
16355;BME280;8287;51.644;8.494;2024-02-26T09:04:23;99015.88;;;9.99;79.75
16355;BME280;8287;51.644;8.494;2024-02-26T09:06:51;99006.09;;;10.12;79.48
16355;BME280;8287;51.644;8.494;2024-02-26T09:09:18;99014.91;;;10.16;78.83
16355;BME280;8287;51.644;8.494;2024-02-26T09:11:45;99004.31;;;10.16;79.34
16355;BME280;8287;51.644;8.494;2024-02-26T09:14:13;99005.97;;;10.20;78.31
16355;BME280;8287;51.644;8.494;2024-02-26T09:16:39;99015.53;;;10.37;79.00
16355;BME280;8287;51.644;8.494;2024-02-26T09:19:06;99014.75;;;10.36;78.13
16355;BME280;8287;51.644;8.494;2024-02-26T09:21:33;99017.28;;;10.45;78.13
16355;BME280;8287;51.644;8.494;2024-02-26T09:23:59;99002.38;;;10.52;78.92
16355;BME280;8287;51.644;8.494;2024-02-26T09:26:26;99009.50;;;10.64;77.50
16355;BME280;8287;51.644;8.494;2024-02-26T09:28:53;99007.00;;;10.55;78.07
16355;BME280;8287;51.644;8.494;2024-02-26T09:31:21;99015.38;;;10.57;77.78
16355;BME280;8287;51.644;8.494;2024-02-26T09:33:47;99009.50;;;10.64;77.37
16355;BME280;8287;51.644;8.494;2024-02-26T09:36:14;99008.47;;;10.41;76.91
16355;BME280;8287;51.644;8.494;2024-02-26T09:38:40;99006.28;;;10.31;77.22
16355;BME280;8287;51.644;8.494;2024-02-26T09:41:14;99010.25;;;10.37;77.78
16355;BME280;8287;51.644;8.494;2024-02-26T09:43:44;99011.09;;;10.53;77.62
16355;BME280;8287;51.644;8.494;2024-02-26T09:46:11;99020.53;;;10.66;77.49
16355;BME280;8287;51.644;8.494;2024-02-26T09:48:42;99014.81;;;10.64;76.74
16355;BME280;8287;51.644;8.494;2024-02-26T09:51:10;99032.78;;;10.70;76.49
16355;BME280;8287;51.644;8.494;2024-02-26T09:53:38;99036.88;;;10.95;76.91
16355;BME280;8287;51.644;8.494;2024-02-26T09:56:08;99034.38;;;11.14;77.22
16355;BME280;8287;51.644;8.494;2024-02-26T09:58:35;99034.16;;;11.35;77.63
16355;BME280;8287;51.644;8.494;2024-02-26T10:01:03;99037.16;;;11.33;76.89
16355;BME280;8287;51.644;8.494;2024-02-26T10:03:41;99031.47;;;11.47;76.69
16355;BME280;8287;51.644;8.494;2024-02-26T10:06:09;99042.66;;;11.40;77.00
16355;BME280;8287;51.644;8.494;2024-02-26T10:08:36;99037.94;;;11.34;77.10
16355;BME280;8287;51.644;8.494;2024-02-26T10:11:04;99044.94;;;11.26;77.13
16355;BME280;8287;51.644;8.494;2024-02-26T10:13:31;99037.06;;;11.30;78.15
16355;BME280;8287;51.644;8.494;2024-02-26T10:15:58;99040.44;;;11.42;77.27
16355;BME280;8287;51.644;8.494;2024-02-26T10:18:24;99043.69;;;11.51;76.84
16355;BME280;8287;51.644;8.494;2024-02-26T10:21:02;99061.16;;;11.52;77.34
16355;BME280;8287;51.644;8.494;2024-02-26T10:23:29;99044.16;;;11.69;76.87
16355;BME280;8287;51.644;8.494;2024-02-26T10:25:56;99054.28;;;11.79;75.27
16355;BME280;8287;51.644;8.494;2024-02-26T10:28:23;99053.31;;;11.71;75.65
16355;BME280;8287;51.644;8.494;2024-02-26T10:30:51;99054.00;;;11.84;74.66
16355;BME280;8287;51.644;8.494;2024-02-26T10:33:18;99054.84;;;11.72;75.29
16355;BME280;8287;51.644;8.494;2024-02-26T10:35:45;99061.69;;;11.73;75.27
16355;BME280;8287;51.644;8.494;2024-02-26T10:38:13;99060.94;;;11.73;75.03
16355;BME280;8287;51.644;8.494;2024-02-26T10:40:45;99064.38;;;11.89;74.99
16355;BME280;8287;51.644;8.494;2024-02-26T10:43:12;99065.50;;;11.88;73.71
16355;BME280;8287;51.644;8.494;2024-02-26T10:45:40;99074.03;;;11.81;73.98
16355;BME280;8287;51.644;8.494;2024-02-26T10:48:09;99075.25;;;11.84;74.46
16355;BME280;8287;51.644;8.494;2024-02-26T10:50:38;99069.94;;;11.84;73.56
16355;BME280;8287;51.644;8.494;2024-02-26T10:53:10;99075.22;;;11.68;73.52
16355;BME280;8287;51.644;8.494;2024-02-26T10:55:41;99071.03;;;11.83;75.01
16355;BME280;8287;51.644;8.494;2024-02-26T10:58:10;99070.34;;;11.86;74.01
16355;BME280;8287;51.644;8.494;2024-02-26T11:00:38;99079.44;;;12.00;73.17
16355;BME280;8287;51.644;8.494;2024-02-26T11:03:06;99074.13;;;12.00;73.17
16355;BME280;8287;51.644;8.494;2024-02-26T11:05:35;99080.63;;;12.18;72.21
16355;BME280;8287;51.644;8.494;2024-02-26T11:08:04;99079.25;;;12.09;73.07
16355;BME280;8287;51.644;8.494;2024-02-26T11:10:31;99090.88;;;11.58;71.02
16355;BME280;8287;51.644;8.494;2024-02-26T11:13:01;99091.75;;;11.62;70.91
16355;BME280;8287;51.644;8.494;2024-02-26T11:15:29;99089.09;;;11.34;69.12
16355;BME280;8287;51.644;8.494;2024-02-26T11:17:58;99092.06;;;11.33;69.75
16355;BME280;8287;51.644;8.494;2024-02-26T11:20:25;99092.59;;;11.38;68.97
16355;BME280;8287;51.644;8.494;2024-02-26T11:22:54;99094.41;;;11.34;69.44
16355;BME280;8287;51.644;8.494;2024-02-26T11:25:21;99092.91;;;11.21;70.52
16355;BME280;8287;51.644;8.494;2024-02-26T11:27:52;99092.25;;;11.12;70.73
16355;BME280;8287;51.644;8.494;2024-02-26T11:30:21;99090.09;;;11.30;70.80
16355;BME280;8287;51.644;8.494;2024-02-26T11:32:48;99098.53;;;11.47;69.81
16355;BME280;8287;51.644;8.494;2024-02-26T11:35:16;99102.38;;;11.62;70.79
16355;BME280;8287;51.644;8.494;2024-02-26T11:37:52;99102.06;;;11.51;70.27
16355;BME280;8287;51.644;8.494;2024-02-26T11:40:19;99102.75;;;11.48;70.88
16355;BME280;8287;51.644;8.494;2024-02-26T11:42:47;99103.13;;;11.62;69.79
16355;BME280;8287;51.644;8.494;2024-02-26T11:48:25;99088.59;;;11.87;70.31
16355;BME280;8287;51.644;8.494;2024-02-26T11:50:55;99090.75;;;12.13;71.51
16355;BME280;8287;51.644;8.494;2024-02-26T11:53:25;99096.22;;;12.35;70.74
16355;BME280;8287;51.644;8.494;2024-02-26T11:56:20;99105.63;;;12.33;70.52
16355;BME280;8287;51.644;8.494;2024-02-26T11:58:48;99107.41;;;12.44;71.21
16355;BME280;8287;51.644;8.494;2024-02-26T12:01:41;99109.00;;;12.64;70.74
16355;BME280;8287;51.644;8.494;2024-02-26T12:04:12;99103.19;;;12.59;69.59
16355;BME280;8287;51.644;8.494;2024-02-26T12:06:48;99107.59;;;12.51;68.86
16355;BME280;8287;51.644;8.494;2024-02-26T12:09:35;99105.59;;;12.64;69.56
16355;BME280;8287;51.644;8.494;2024-02-26T12:12:03;99108.16;;;12.60;69.14
16355;BME280;8287;51.644;8.494;2024-02-26T12:14:33;99110.16;;;12.48;68.48
16355;BME280;8287;51.644;8.494;2024-02-26T12:16:59;99107.88;;;12.65;69.67
16355;BME280;8287;51.644;8.494;2024-02-26T12:19:28;99114.34;;;12.49;68.98
16355;BME280;8287;51.644;8.494;2024-02-26T12:21:54;99110.31;;;12.55;70.01
16355;BME280;8287;51.644;8.494;2024-02-26T12:24:21;99113.28;;;12.69;70.13
16355;BME280;8287;51.644;8.494;2024-02-26T12:26:48;99116.50;;;12.78;70.50
16355;BME280;8287;51.644;8.494;2024-02-26T12:29:15;99115.75;;;12.77;70.29
16355;BME280;8287;51.644;8.494;2024-02-26T12:31:42;99115.47;;;12.82;69.59
16355;BME280;8287;51.644;8.494;2024-02-26T12:34:09;99109.72;;;12.80;70.75
16355;BME280;8287;51.644;8.494;2024-02-26T12:36:37;99116.63;;;12.66;70.91
16355;BME280;8287;51.644;8.494;2024-02-26T12:39:05;99114.72;;;12.82;71.02
16355;BME280;8287;51.644;8.494;2024-02-26T12:41:32;99114.78;;;12.85;69.86
16355;BME280;8287;51.644;8.494;2024-02-26T12:43:59;99112.16;;;12.70;69.57
16355;BME280;8287;51.644;8.494;2024-02-26T12:46:26;99118.50;;;12.65;69.93
16355;BME280;8287;51.644;8.494;2024-02-26T12:48:55;99124.69;;;12.69;69.83
16355;BME280;8287;51.644;8.494;2024-02-26T12:51:24;99130.19;;;12.61;69.17
16355;BME280;8287;51.644;8.494;2024-02-26T12:53:53;99132.69;;;12.38;70.19
16355;BME280;8287;51.644;8.494;2024-02-26T12:56:21;99139.53;;;12.39;71.60
16355;BME280;8287;51.644;8.494;2024-02-26T12:58:48;99133.06;;;12.37;70.96
16355;BME280;8287;51.644;8.494;2024-02-26T13:01:19;99139.91;;;12.38;71.39
16355;BME280;8287;51.644;8.494;2024-02-26T13:03:46;99152.59;;;12.29;72.45
16355;BME280;8287;51.644;8.494;2024-02-26T13:06:13;99150.25;;;12.43;71.33
16355;BME280;8287;51.644;8.494;2024-02-26T13:08:40;99152.91;;;12.58;71.24
16355;BME280;8287;51.644;8.494;2024-02-26T13:11:08;99150.34;;;12.46;71.53
16355;BME280;8287;51.644;8.494;2024-02-26T13:13:35;99151.47;;;12.45;72.52
16355;BME280;8287;51.644;8.494;2024-02-26T13:16:03;99157.31;;;12.35;72.99
16355;BME280;8287;51.644;8.494;2024-02-26T13:18:31;99152.75;;;12.36;72.80
16355;BME280;8287;51.644;8.494;2024-02-26T13:21:09;99152.50;;;12.41;73.31
16355;BME280;8287;51.644;8.494;2024-02-26T13:23:36;99149.66;;;12.34;73.55